Time;durP1;ratioP1;P1;durP2;ratioP2;P2;SDS_P1;SDS_P2;PMS_P1;PMS_P2;Temp;Humidity;BMP_temperature;BMP_pressure;BME280_temperature;BME280_humidity;BME280_pressure;Samples;Min_cycle;Max_cycle;Signal;HPM_P1;HPM_P2
2023/12/31 00:00:34;;;;;;;12.35;3.38;;;;;;;;;;5070153;28;20033;-77
2023/12/31 00:03:00;;;;;;;7.25;2.92;;;;;;;;;;5069862;28;20025;-77
2023/12/31 00:05:26;;;;;;;14.32;3.20;;;;;;;;;;5067967;28;20025;-79
2023/12/31 00:07:52;;;;;;;7.97;2.90;;;;;;;;;;5067833;28;20036;-79
2023/12/31 00:10:18;;;;;;;7.72;3.28;;;;;;;;;;5068482;28;20085;-78
2023/12/31 00:12:44;;;;;;;9.13;2.45;;;;;;;;;;5048544;28;20033;-78
2023/12/31 00:15:10;;;;;;;8.20;2.47;;;;;;;;;;5047948;28;20044;-77
2023/12/31 00:17:35;;;;;;;9.70;2.90;;;;;;;;;;5046884;28;20025;-78
2023/12/31 00:20:03;;;;;;;8.07;2.20;;;;;;;;;;5047908;28;20048;-78
2023/12/31 00:22:30;;;;;;;9.05;2.40;;;;;;;;;;5046951;28;20479;-78
2023/12/31 00:24:56;;;;;;;8.35;2.47;;;;;;;;;;5045270;28;20086;-78
2023/12/31 00:27:21;;;;;;;8.48;2.17;;;;;;;;;;5044591;28;20472;-77
2023/12/31 00:29:49;;;;;;;10.02;2.63;;;;;;;;;;5047031;28;20057;-77
2023/12/31 00:32:16;;;;;;;8.48;2.28;;;;;;;;;;5061062;28;20052;-77
2023/12/31 00:34:44;;;;;;;9.68;2.38;;;;;;;;;;5061352;28;20080;-77
2023/12/31 00:37:10;;;;;;;8.48;2.72;;;;;;;;;;5062158;28;20052;-76
2023/12/31 00:39:35;;;;;;;8.18;2.63;;;;;;;;;;5063307;28;20040;-77
2023/12/31 00:42:01;;;;;;;11.00;2.75;;;;;;;;;;5044702;28;20120;-77
2023/12/31 00:44:27;;;;;;;6.07;2.20;;;;;;;;;;5077586;28;20585;-78
2023/12/31 00:46:53;;;;;;;7.38;2.33;;;;;;;;;;5062694;28;20029;-77
2023/12/31 00:49:19;;;;;;;5.40;2.05;;;;;;;;;;5044111;28;20029;-78
2023/12/31 00:51:44;;;;;;;6.47;2.60;;;;;;;;;;5030671;28;20060;-77
2023/12/31 00:54:10;;;;;;;9.93;2.60;;;;;;;;;;5060442;28;20041;-77
2023/12/31 00:56:40;;;;;;;10.35;2.35;;;;;;;;;;5065317;28;20124;-77
2023/12/31 00:59:05;;;;;;;9.20;2.35;;;;;;;;;;5080283;28;20048;-78
2023/12/31 01:01:31;;;;;;;14.70;2.45;;;;;;;;;;5064523;28;20029;-77
2023/12/31 01:03:57;;;;;;;12.07;2.20;;;;;;;;;;5043369;28;20102;-77
2023/12/31 01:06:24;;;;;;;9.98;2.65;;;;;;;;;;5060236;28;20096;-77
2023/12/31 01:08:52;;;;;;;6.07;2.30;;;;;;;;;;5026452;28;20057;-78
2023/12/31 01:11:18;;;;;;;7.75;2.25;;;;;;;;;;5040949;28;20592;-77
2023/12/31 01:13:44;;;;;;;5.20;2.00;;;;;;;;;;5024552;28;20045;-78
2023/12/31 01:16:11;;;;;;;6.63;2.08;;;;;;;;;;5044074;28;20029;-78
2023/12/31 01:18:36;;;;;;;9.32;2.00;;;;;;;;;;5059666;28;20100;-78
2023/12/31 01:21:03;;;;;;;3.50;1.50;;;;;;;;;;5043813;28;20063;-77
2023/12/31 01:23:29;;;;;;;5.78;1.63;;;;;;;;;;5025196;28;20036;-77
2023/12/31 01:25:55;;;;;;;4.47;1.55;;;;;;;;;;5043448;28;20056;-78
2023/12/31 01:28:21;;;;;;;7.63;1.75;;;;;;;;;;5059823;28;20092;-77
2023/12/31 01:30:48;;;;;;;7.75;1.70;;;;;;;;;;5044535;28;20036;-76
2023/12/31 01:33:14;;;;;;;6.90;1.60;;;;;;;;;;5059775;28;20033;-77
2023/12/31 01:35:40;;;;;;;7.97;2.00;;;;;;;;;;5060574;28;20033;-77
2023/12/31 01:38:06;;;;;;;8.45;1.88;;;;;;;;;;5059711;28;20040;-76
2023/12/31 01:40:31;;;;;;;5.97;1.92;;;;;;;;;;5044433;28;20021;-77
2023/12/31 01:42:59;;;;;;;7.03;1.60;;;;;;;;;;5044092;28;20395;-76
2023/12/31 01:45:25;;;;;;;10.43;1.88;;;;;;;;;;5026781;28;20029;-77
2023/12/31 01:47:52;;;;;;;5.40;1.52;;;;;;;;;;5060922;28;20035;-78
2023/12/31 01:50:19;;;;;;;6.50;1.48;;;;;;;;;;5042549;28;20099;-78
2023/12/31 01:52:46;;;;;;;6.82;1.50;;;;;;;;;;5031123;28;20064;-77
2023/12/31 01:55:13;;;;;;;6.88;1.98;;;;;;;;;;5066609;28;20056;-77
2023/12/31 01:57:40;;;;;;;6.88;1.60;;;;;;;;;;5048562;28;20041;-78
2023/12/31 02:00:06;;;;;;;10.52;2.15;;;;;;;;;;5032714;28;20037;-78
2023/12/31 02:02:42;;;;;;;5.00;1.65;;;;;;;;;;5049482;28;20032;-78
2023/12/31 02:05:07;;;;;;;5.47;1.42;;;;;;;;;;5078521;28;20040;-78
2023/12/31 02:07:34;;;;;;;7.15;1.52;;;;;;;;;;5064499;28;20021;-78
2023/12/31 02:10:01;;;;;;;7.03;2.00;;;;;;;;;;5063489;28;20021;-80
2023/12/31 02:12:29;;;;;;;6.38;1.90;;;;;;;;;;5064784;28;20091;-78
2023/12/31 02:14:54;;;;;;;10.73;1.75;;;;;;;;;;5064226;28;20025;-77
2023/12/31 02:17:21;;;;;;;4.55;1.65;;;;;;;;;;5046841;28;20025;-78
2023/12/31 02:19:48;;;;;;;5.65;1.55;;;;;;;;;;5066291;28;20039;-79
2023/12/31 02:22:13;;;;;;;5.55;1.80;;;;;;;;;;5051597;28;20028;-78
2023/12/31 02:24:50;;;;;;;3.97;1.63;;;;;;;;;;5054726;28;20041;-78
2023/12/31 02:27:16;;;;;;;3.92;1.40;;;;;;;;;;5040209;28;20037;-78
2023/12/31 02:29:43;;;;;;;6.13;1.92;;;;;;;;;;5069648;28;20037;-79
2023/12/31 02:32:10;;;;;;;8.27;2.22;;;;;;;;;;5067403;28;20024;-78
2023/12/31 02:34:36;;;;;;;6.03;2.00;;;;;;;;;;5032012;28;20379;-78
2023/12/31 02:37:02;;;;;;;5.15;1.55;;;;;;;;;;5050234;28;20056;-79
2023/12/31 02:39:28;;;;;;;6.13;1.88;;;;;;;;;;5052223;28;20037;-78
2023/12/31 02:41:55;;;;;;;7.47;1.80;;;;;;;;;;5032844;28;20040;-77
2023/12/31 02:44:21;;;;;;;8.82;1.60;;;;;;;;;;5051133;28;20443;-79
2023/12/31 02:46:47;;;;;;;6.10;1.65;;;;;;;;;;5036651;28;20033;-79
2023/12/31 02:49:13;;;;;;;4.75;1.48;;;;;;;;;;5052351;28;20043;-78
2023/12/31 02:51:41;;;;;;;2.33;1.10;;;;;;;;;;5066478;28;20052;-77
2023/12/31 02:54:06;;;;;;;8.55;1.58;;;;;;;;;;5066054;28;20051;-78
2023/12/31 02:56:38;;;;;;;6.03;0.98;;;;;;;;;;5049505;28;20036;-78
2023/12/31 02:59:04;;;;;;;5.07;1.50;;;;;;;;;;5066020;28;20060;-78
2023/12/31 03:01:31;;;;;;;4.80;1.38;;;;;;;;;;5065611;28;20029;-77
2023/12/31 03:03:57;;;;;;;6.45;1.27;;;;;;;;;;5062874;28;20448;-77
2023/12/31 03:06:26;;;;;;;5.38;1.60;;;;;;;;;;5064141;28;20040;-78
2023/12/31 03:08:52;;;;;;;5.50;1.27;;;;;;;;;;5065148;28;20063;-79
2023/12/31 03:11:18;;;;;;;6.72;1.80;;;;;;;;;;5064123;28;20063;-77
2023/12/31 03:13:44;;;;;;;3.03;1.10;;;;;;;;;;5063368;28;20430;-79
2023/12/31 03:16:12;;;;;;;6.10;1.92;;;;;;;;;;5044368;28;20057;-78
2023/12/31 03:18:38;;;;;;;4.15;1.55;;;;;;;;;;5044982;28;20048;-78
2023/12/31 03:21:03;;;;;;;3.63;1.55;;;;;;;;;;5067103;28;20035;-77
2023/12/31 03:23:30;;;;;;;5.38;1.40;;;;;;;;;;5051773;28;20037;-77
2023/12/31 03:25:56;;;;;;;4.20;1.40;;;;;;;;;;5069265;28;20079;-78
2023/12/31 03:28:22;;;;;;;5.63;1.52;;;;;;;;;;5071482;28;20052;-78
2023/12/31 03:30:48;;;;;;;2.95;1.23;;;;;;;;;;5071624;28;20033;-78
2023/12/31 03:33:14;;;;;;;3.85;1.20;;;;;;;;;;5052681;28;20055;-79
2023/12/31 03:35:40;;;;;;;4.40;1.13;;;;;;;;;;5068704;28;20094;-78
2023/12/31 03:38:06;;;;;;;4.03;1.08;;;;;;;;;;5039300;28;20052;-78
2023/12/31 03:40:32;;;;;;;3.67;1.17;;;;;;;;;;5055827;28;20037;-78
2023/12/31 03:42:58;;;;;;;2.83;1.10;;;;;;;;;;5051059;28;20028;-78
2023/12/31 03:45:26;;;;;;;2.97;0.88;;;;;;;;;;5068746;28;20028;-78
2023/12/31 03:47:54;;;;;;;;;;;;;;;;;;5071650;28;20021;-78
2023/12/31 03:50:20;;;;;;;2.67;1.08;;;;;;;;;;5071534;28;20344;-77
2023/12/31 03:52:46;;;;;;;3.20;1.00;;;;;;;;;;5055610;28;20044;-79
2023/12/31 03:55:14;;;;;;;2.47;0.93;;;;;;;;;;5071149;28;20025;-79
2023/12/31 03:57:40;;;;;;;2.92;1.08;;;;;;;;;;5070967;28;20017;-79
2023/12/31 04:00:07;;;;;;;1.77;0.90;;;;;;;;;;5070451;28;20044;-78
2023/12/31 04:02:34;;;;;;;9.27;1.73;;;;;;;;;;5069689;28;20111;-79
2023/12/31 04:05:02;;;;;;;5.78;1.08;;;;;;;;;;5037066;28;20036;-78
2023/12/31 04:07:28;;;;;;;5.35;1.00;;;;;;;;;;5040821;28;20037;-76
2023/12/31 04:09:54;;;;;;;3.58;1.38;;;;;;;;;;5056346;28;20036;-78
2023/12/31 04:12:21;;;;;;;1.95;0.85;;;;;;;;;;5054826;28;20067;-79
2023/12/31 04:14:48;;;;;;;2.40;1.00;;;;;;;;;;5039494;28;20028;-77
2023/12/31 04:17:15;;;;;;;2.63;0.90;;;;;;;;;;5039841;28;20033;-77
2023/12/31 04:19:43;;;;;;;2.50;0.93;;;;;;;;;;5033591;28;20124;-77
2023/12/31 04:22:10;;;;;;;1.55;0.75;;;;;;;;;;5049087;28;20053;-77
2023/12/31 04:24:35;;;;;;;3.20;1.08;;;;;;;;;;5031997;28;20090;-77
2023/12/31 04:27:02;;;;;;;3.53;1.20;;;;;;;;;;5031334;28;20025;-79
2023/12/31 04:29:28;;;;;;;5.88;1.63;;;;;;;;;;5046665;28;20060;-79
2023/12/31 04:31:55;;;;;;;3.42;1.20;;;;;;;;;;5027807;28;20056;-78
2023/12/31 04:34:21;;;;;;;5.53;1.60;;;;;;;;;;5044157;28;20040;-78
2023/12/31 04:36:47;;;;;;;7.10;1.20;;;;;;;;;;5029188;28;20128;-78
2023/12/31 04:39:13;;;;;;;4.05;0.93;;;;;;;;;;5030483;28;20065;-79
2023/12/31 04:41:38;;;;;;;3.58;1.10;;;;;;;;;;5061830;28;20404;-78
2023/12/31 04:44:04;;;;;;;4.00;1.30;;;;;;;;;;5059343;28;20079;-78
2023/12/31 04:46:30;;;;;;;4.55;1.33;;;;;;;;;;5030602;28;20032;-78
2023/12/31 04:48:56;;;;;;;3.85;1.23;;;;;;;;;;5046529;28;20036;-79
2023/12/31 04:51:24;;;;;;;5.05;1.48;;;;;;;;;;5063674;28;20051;-77
2023/12/31 04:53:50;;;;;;;;;;;;;;;;;;5063436;28;20036;-77
2023/12/31 04:56:22;;;;;;;2.20;1.00;;;;;;;;;;5061898;28;20394;-77
2023/12/31 04:58:54;;;;;;;3.58;1.10;;;;;;;;;;5063395;28;20041;-76
2023/12/31 05:01:20;;;;;;;2.92;1.10;;;;;;;;;;5060528;28;20044;-78
2023/12/31 05:03:46;;;;;;;4.10;1.35;;;;;;;;;;5042877;28;20021;-77
2023/12/31 05:06:12;;;;;;;6.20;1.17;;;;;;;;;;5025810;28;20434;-78
2023/12/31 05:08:41;;;;;;;2.45;1.00;;;;;;;;;;5026696;28;20088;-77
2023/12/31 05:11:06;;;;;;;3.05;1.50;;;;;;;;;;5028253;28;20032;-77
2023/12/31 05:13:33;;;;;;;2.92;1.05;;;;;;;;;;5041852;28;20037;-77
2023/12/31 05:16:02;;;;;;;5.22;1.30;;;;;;;;;;5043059;28;20039;-78
2023/12/31 05:18:28;;;;;;;3.50;1.15;;;;;;;;;;5042213;28;20419;-77
2023/12/31 05:20:53;;;;;;;2.33;1.20;;;;;;;;;;5029602;28;20043;-77
2023/12/31 05:23:19;;;;;;;4.75;1.17;;;;;;;;;;5046354;28;20087;-77
2023/12/31 05:25:45;;;;;;;3.75;1.40;;;;;;;;;;5063725;28;20050;-77
2023/12/31 05:28:11;;;;;;;3.85;1.10;;;;;;;;;;5061928;28;20021;-77
2023/12/31 05:30:41;;;;;;;5.93;1.42;;;;;;;;;;5046538;28;20052;-77
2023/12/31 05:33:07;;;;;;;4.40;1.10;;;;;;;;;;5048078;28;20480;-77
2023/12/31 05:35:34;;;;;;;3.38;0.90;;;;;;;;;;5030589;28;20036;-77
2023/12/31 05:38:02;;;;;;;3.72;1.17;;;;;;;;;;5044558;28;20029;-78
2023/12/31 05:40:28;;;;;;;2.40;1.00;;;;;;;;;;5062013;28;20021;-77
2023/12/31 05:42:54;;;;;;;3.10;1.27;;;;;;;;;;5059678;28;20032;-78
2023/12/31 05:45:19;;;;;;;2.90;1.02;;;;;;;;;;5060251;28;20108;-77
2023/12/31 05:47:48;;;;;;;2.92;1.10;;;;;;;;;;5060600;28;20032;-76
2023/12/31 05:50:14;;;;;;;;;;;;;;;;;;5061992;28;20086;-76
2023/12/31 05:52:39;;;;;;;2.95;1.40;;;;;;;;;;5062234;28;19908;-76
2023/12/31 05:55:05;;;;;;;2.40;0.93;;;;;;;;;;5063748;28;20040;-78
2023/12/31 05:57:31;;;;;;;2.63;1.13;;;;;;;;;;5048623;28;20040;-78
2023/12/31 05:59:58;;;;;;;6.30;1.10;;;;;;;;;;5027504;28;20044;-78
2023/12/31 06:02:24;;;;;;;2.83;1.00;;;;;;;;;;5027587;28;20037;-77
2023/12/31 06:04:50;;;;;;;5.05;1.27;;;;;;;;;;5026144;28;20040;-77
2023/12/31 06:07:16;;;;;;;2.55;1.10;;;;;;;;;;5029545;28;20037;-79
2023/12/31 06:09:42;;;;;;;3.90;1.20;;;;;;;;;;5045109;28;20120;-77
2023/12/31 06:12:08;;;;;;;3.08;1.00;;;;;;;;;;5043898;28;20526;-77
2023/12/31 06:14:35;;;;;;;3.47;1.20;;;;;;;;;;5058916;28;20119;-78
2023/12/31 06:17:00;;;;;;;2.50;1.23;;;;;;;;;;5060984;28;20126;-75
2023/12/31 06:19:26;;;;;;;2.67;1.23;;;;;;;;;;5060347;28;20031;-80
2023/12/31 06:21:52;;;;;;;3.67;1.27;;;;;;;;;;5061735;28;20028;-77
2023/12/31 06:24:18;;;;;;;4.35;1.20;;;;;;;;;;5063140;28;20033;-77
2023/12/31 06:26:43;;;;;;;4.15;1.60;;;;;;;;;;5046144;28;20029;-77
2023/12/31 06:29:09;;;;;;;3.88;1.27;;;;;;;;;;5046766;28;20484;-78
2023/12/31 06:31:38;;;;;;;2.80;1.30;;;;;;;;;;5066871;28;20035;-77
2023/12/31 06:34:04;;;;;;;2.53;1.30;;;;;;;;;;5064453;28;20096;-77
2023/12/31 06:36:30;;;;;;;4.72;1.45;;;;;;;;;;5062703;28;20458;-77
2023/12/31 06:38:56;;;;;;;4.53;1.38;;;;;;;;;;5060247;28;20025;-78
2023/12/31 06:41:22;;;;;;;2.85;1.33;;;;;;;;;;5058632;28;20112;-76
2023/12/31 06:43:48;;;;;;;3.60;1.25;;;;;;;;;;5035927;28;20056;-77
2023/12/31 06:46:14;;;;;;;2.88;1.38;;;;;;;;;;5037549;28;20053;-77
2023/12/31 06:48:40;;;;;;;3.50;1.70;;;;;;;;;;5053141;28;20052;-77
2023/12/31 06:51:06;;;;;;;5.80;1.27;;;;;;;;;;5020134;28;20036;-78
2023/12/31 06:53:33;;;;;;;6.88;1.40;;;;;;;;;;5052827;28;20484;-78
2023/12/31 06:56:05;;;;;;;4.38;1.52;;;;;;;;;;5052701;28;20484;-77
2023/12/31 06:58:30;;;;;;;;;;;;;;;;;;5035761;28;20503;-77
2023/12/31 07:00:56;;;;;;;3.17;1.20;;;;;;;;;;5053181;28;19927;-77
2023/12/31 07:03:21;;;;;;;2.97;1.50;;;;;;;;;;5051232;28;20040;-76
2023/12/31 07:05:47;;;;;;;2.58;1.38;;;;;;;;;;5053214;28;20107;-77
2023/12/31 07:08:13;;;;;;;6.57;1.45;;;;;;;;;;5035588;28;20029;-77
2023/12/31 07:10:39;;;;;;;3.53;1.50;;;;;;;;;;5055548;28;20041;-76
2023/12/31 07:13:05;;;;;;;3.90;1.50;;;;;;;;;;5072233;28;20033;-77
2023/12/31 07:15:30;;;;;;;3.85;1.38;;;;;;;;;;5068616;28;20036;-77
2023/12/31 07:17:56;;;;;;;3.38;1.63;;;;;;;;;;5068142;28;20546;-78
2023/12/31 07:20:22;;;;;;;6.07;1.58;;;;;;;;;;5052940;28;20035;-76
2023/12/31 07:22:48;;;;;;;4.03;1.90;;;;;;;;;;5034835;28;20059;-77
2023/12/31 07:25:13;;;;;;;5.75;1.88;;;;;;;;;;5034750;28;20396;-77
2023/12/31 07:27:39;;;;;;;4.45;1.83;;;;;;;;;;5052067;28;20025;-77
2023/12/31 07:30:06;;;;;;;4.43;2.08;;;;;;;;;;5050867;28;20064;-77
2023/12/31 07:32:32;;;;;;;4.32;1.60;;;;;;;;;;5035031;28;20043;-78
2023/12/31 07:34:57;;;;;;;3.50;1.60;;;;;;;;;;5050708;28;20476;-77
2023/12/31 07:37:23;;;;;;;7.80;1.90;;;;;;;;;;5052639;28;20021;-77
2023/12/31 07:39:48;;;;;;;3.92;1.42;;;;;;;;;;5053404;28;20033;-77
2023/12/31 07:42:15;;;;;;;3.60;1.48;;;;;;;;;;5051912;28;20060;-77
2023/12/31 07:44:40;;;;;;;4.00;1.85;;;;;;;;;;5052075;28;20033;-76
2023/12/31 07:47:06;;;;;;;3.42;1.40;;;;;;;;;;5052931;28;20027;-76
2023/12/31 07:49:33;;;;;;;4.88;1.30;;;;;;;;;;5051281;28;20033;-77
2023/12/31 07:51:59;;;;;;;3.60;1.70;;;;;;;;;;5051440;28;20114;-76
2023/12/31 07:54:27;;;;;;;3.78;1.70;;;;;;;;;;5052155;28;20512;-78
2023/12/31 07:56:53;;;;;;;3.53;1.60;;;;;;;;;;5052735;28;20033;-77
2023/12/31 07:59:18;;;;;;;8.23;1.85;;;;;;;;;;5054801;28;20036;-77
2023/12/31 08:01:44;;;;;;;3.88;1.30;;;;;;;;;;5052501;28;20480;-76
2023/12/31 08:04:09;;;;;;;4.68;1.60;;;;;;;;;;5051166;28;20548;-76
2023/12/31 08:06:36;;;;;;;4.05;1.42;;;;;;;;;;5036163;28;20036;-76
2023/12/31 08:09:02;;;;;;;4.53;1.63;;;;;;;;;;5025826;28;20037;-77
2023/12/31 08:11:28;;;;;;;3.90;1.73;;;;;;;;;;5023071;28;20519;-77
2023/12/31 08:13:54;;;;;;;6.05;1.75;;;;;;;;;;5057384;28;20438;-77
2023/12/31 08:16:19;;;;;;;6.13;2.55;;;;;;;;;;5042335;28;20549;-77
2023/12/31 08:18:45;;;;;;;5.50;1.73;;;;;;;;;;5025200;28;20679;-78
2023/12/31 08:21:11;;;;;;;3.65;1.60;;;;;;;;;;5074293;28;20044;-79
2023/12/31 08:23:37;;;;;;;5.65;1.92;;;;;;;;;;5074048;28;20060;-78
2023/12/31 08:26:07;;;;;;;2.90;1.50;;;;;;;;;;5041642;28;20119;-79
2023/12/31 08:28:37;;;;;;;4.22;1.65;;;;;;;;;;5062723;28;20053;-77
2023/12/31 08:31:03;;;;;;;7.10;2.00;;;;;;;;;;5022816;28;20391;-77
2023/12/31 08:33:28;;;;;;;5.90;1.70;;;;;;;;;;5054942;28;20033;-78
2023/12/31 08:35:54;;;;;;;4.40;1.60;;;;;;;;;;5038687;28;20040;-78
2023/12/31 08:38:20;;;;;;;3.60;1.65;;;;;;;;;;5021917;28;20036;-78
2023/12/31 08:40:45;;;;;;;3.70;1.52;;;;;;;;;;5022149;28;20044;-77
2023/12/31 08:43:11;;;;;;;9.15;2.25;;;;;;;;;;5038280;28;20024;-77
2023/12/31 08:45:39;;;;;;;5.28;1.90;;;;;;;;;;5037804;28;20036;-78
2023/12/31 08:48:07;;;;;;;8.37;3.53;;;;;;;;;;5071228;28;20058;-78
2023/12/31 08:50:32;;;;;;;3.85;1.58;;;;;;;;;;5037563;28;20033;-78
2023/12/31 08:52:58;;;;;;;4.35;1.50;;;;;;;;;;5053699;28;20037;-78
2023/12/31 08:55:24;;;;;;;3.90;1.83;;;;;;;;;;5036743;28;20037;-77
2023/12/31 08:57:50;;;;;;;3.70;1.55;;;;;;;;;;5054199;28;20040;-78
2023/12/31 09:00:18;;;;;;;5.03;1.95;;;;;;;;;;5055143;28;20029;-77
2023/12/31 09:02:44;;;;;;;5.00;1.90;;;;;;;;;;5053807;28;20519;-78
2023/12/31 09:05:10;;;;;;;4.03;1.88;;;;;;;;;;5036877;28;20112;-77
2023/12/31 09:07:36;;;;;;;5.07;1.70;;;;;;;;;;5053587;28;20032;-78
2023/12/31 09:10:02;;;;;;;3.30;1.70;;;;;;;;;;5020471;28;20058;-79
2023/12/31 09:12:28;;;;;;;4.20;2.22;;;;;;;;;;5020628;28;20029;-78
2023/12/31 09:14:54;;;;;;;5.43;2.00;;;;;;;;;;5055017;28;20028;-78
2023/12/31 09:17:19;;;;;;;7.15;1.88;;;;;;;;;;5036840;28;20029;-78
2023/12/31 09:19:45;;;;;;;5.68;1.92;;;;;;;;;;5053861;28;20032;-78
2023/12/31 09:22:10;;;;;;;5.88;2.03;;;;;;;;;;5055786;28;20029;-77
2023/12/31 09:24:36;;;;;;;4.88;1.60;;;;;;;;;;5054085;28;20029;-78
2023/12/31 09:27:03;;;;;;;3.55;1.80;;;;;;;;;;5054893;28;20500;-78
2023/12/31 09:29:29;;;;;;;5.22;2.10;;;;;;;;;;5053375;28;20032;-78
2023/12/31 09:31:55;;;;;;;5.68;2.13;;;;;;;;;;5053206;28;20041;-78
2023/12/31 09:34:20;;;;;;;5.95;2.22;;;;;;;;;;5054131;28;20039;-77
2023/12/31 09:36:46;;;;;;;4.78;1.80;;;;;;;;;;5053713;28;20036;-78
2023/12/31 09:39:12;;;;;;;6.15;1.73;;;;;;;;;;5054302;28;20048;-78
2023/12/31 09:41:37;;;;;;;4.45;2.05;;;;;;;;;;5055399;28;20037;-77
2023/12/31 09:44:03;;;;;;;3.90;2.10;;;;;;;;;;5055124;28;20021;-77
2023/12/31 09:46:31;;;;;;;3.60;1.88;;;;;;;;;;5057136;28;20032;-78
2023/12/31 09:48:57;;;;;;;5.78;2.00;;;;;;;;;;5057205;28;20025;-77
2023/12/31 09:51:23;;;;;;;3.65;1.90;;;;;;;;;;5058810;28;20075;-77
2023/12/31 09:53:51;;;;;;;3.95;1.50;;;;;;;;;;5041582;28;20033;-78
2023/12/31 09:56:17;;;;;;;6.88;2.15;;;;;;;;;;5056084;28;20033;-77
2023/12/31 09:58:42;;;;;;;4.13;1.77;;;;;;;;;;5053213;28;20043;-78
2023/12/31 10:01:08;;;;;;;6.65;2.50;;;;;;;;;;5054623;28;20025;-78
2023/12/31 10:03:35;;;;;;;5.20;1.90;;;;;;;;;;5056058;28;20029;-78
2023/12/31 10:06:02;;;;;;;5.07;1.75;;;;;;;;;;5054669;28;20025;-78
2023/12/31 10:08:28;;;;;;;5.15;1.98;;;;;;;;;;5055653;28;20061;-77
2023/12/31 10:10:55;;;;;;;5.10;1.80;;;;;;;;;;5037956;28;20037;-77
2023/12/31 10:13:20;;;;;;;5.13;2.10;;;;;;;;;;5053484;28;20116;-77
2023/12/31 10:15:46;;;;;;;4.25;1.83;;;;;;;;;;5021320;28;20102;-77
2023/12/31 10:18:12;;;;;;;5.18;1.73;;;;;;;;;;5055719;28;20075;-77
2023/12/31 10:20:38;;;;;;;5.18;1.98;;;;;;;;;;5054513;28;20044;-77
2023/12/31 10:23:07;;;;;;;4.15;1.75;;;;;;;;;;5054589;28;20117;-78
2023/12/31 10:25:33;;;;;;;5.13;2.05;;;;;;;;;;5055333;28;20057;-77
2023/12/31 10:27:59;;;;;;;3.15;1.42;;;;;;;;;;5054802;28;20044;-78
2023/12/31 10:30:25;;;;;;;5.85;1.88;;;;;;;;;;5055166;28;20377;-77
2023/12/31 10:32:50;;;;;;;4.38;1.80;;;;;;;;;;5037996;28;20058;-77
2023/12/31 10:35:19;;;;;;;11.90;1.92;;;;;;;;;;5055503;28;20028;-77
2023/12/31 10:37:47;;;;;;;5.32;1.58;;;;;;;;;;5054998;28;20025;-77
2023/12/31 10:40:17;;;;;;;3.78;1.70;;;;;;;;;;5036749;28;20036;-78
2023/12/31 10:42:46;;;;;;;5.38;1.90;;;;;;;;;;5054910;28;20040;-77
2023/12/31 10:45:11;;;;;;;4.43;1.90;;;;;;;;;;5070402;28;20112;-78
2023/12/31 10:47:38;;;;;;;4.97;1.90;;;;;;;;;;5056209;28;20233;-78
2023/12/31 10:50:06;;;;;;;4.32;1.95;;;;;;;;;;5057482;28;20086;-78
2023/12/31 10:52:32;;;;;;;4.25;1.73;;;;;;;;;;5036328;28;20021;-78
2023/12/31 10:54:58;;;;;;;7.50;2.33;;;;;;;;;;5052506;28;20021;-77
2023/12/31 10:57:24;;;;;;;4.43;2.00;;;;;;;;;;5052628;28;20041;-76
2023/12/31 10:59:52;;;;;;;4.20;1.80;;;;;;;;;;5069200;28;20033;-78
2023/12/31 11:02:18;;;;;;;4.95;2.03;;;;;;;;;;5035129;28;20033;-77
2023/12/31 11:04:47;;;;;;;3.95;1.50;;;;;;;;;;5052817;28;20025;-79
2023/12/31 11:07:17;;;;;;;6.22;1.70;;;;;;;;;;5035582;28;20139;-78
2023/12/31 11:09:43;;;;;;;4.47;1.60;;;;;;;;;;5053020;28;20083;-78
2023/12/31 11:12:13;;;;;;;3.60;1.35;;;;;;;;;;5035705;28;20665;-77
2023/12/31 11:14:42;;;;;;;4.00;1.50;;;;;;;;;;5068872;28;20095;-78
2023/12/31 11:17:16;;;;;;;5.35;1.80;;;;;;;;;;5036379;28;20594;-78
2023/12/31 11:19:42;;;;;;;4.25;2.20;;;;;;;;;;5053333;28;20041;-79
2023/12/31 11:22:29;;;;;;;4.75;2.10;;;;;;;;;;5052498;28;20551;-78
2023/12/31 11:24:55;;;;;;;5.90;1.80;;;;;;;;;;5052366;28;20035;-78
2023/12/31 11:27:21;;;;;;;4.13;1.70;;;;;;;;;;5053061;28;20032;-78
2023/12/31 11:29:50;;;;;;;5.03;1.80;;;;;;;;;;5034683;28;20412;-78
2023/12/31 11:32:17;;;;;;;9.85;1.92;;;;;;;;;;5052662;28;20559;-78
2023/12/31 11:34:43;;;;;;;4.68;2.00;;;;;;;;;;5034303;28;20108;-78
2023/12/31 11:37:09;;;;;;;5.90;1.65;;;;;;;;;;5034801;28;20063;-78
2023/12/31 11:39:35;;;;;;;3.75;1.67;;;;;;;;;;5018340;28;20033;-78
2023/12/31 11:42:08;;;;;;;3.28;1.80;;;;;;;;;;5020557;28;20208;-78
2023/12/31 11:44:38;;;;;;;6.45;2.20;;;;;;;;;;5038236;28;20448;-77
2023/12/31 11:47:10;;;;;;;4.07;1.80;;;;;;;;;;5055923;28;20021;-78
2023/12/31 11:49:38;;;;;;;5.07;1.80;;;;;;;;;;5021975;28;20029;-77
2023/12/31 11:52:04;;;;;;;5.13;2.45;;;;;;;;;;5021705;28;20119;-77
2023/12/31 11:54:33;;;;;;;4.35;2.00;;;;;;;;;;5038030;28;20045;-78
2023/12/31 11:57:18;;;;;;;;;;;;;;;;;;;;;
2023/12/31 11:59:54;;;;;;;4.57;1.80;;;;;;;;;;5038531;28;20126;-77
2023/12/31 12:02:20;;;;;;;4.10;1.67;;;;;;;;;;5055291;28;20036;-78
2023/12/31 12:04:46;;;;;;;4.63;1.98;;;;;;;;;;5038840;28;20425;-77
2023/12/31 12:07:18;;;;;;;4.55;1.95;;;;;;;;;;5055539;28;20079;-77
2023/12/31 12:09:52;;;;;;;3.80;1.80;;;;;;;;;;5056246;28;20033;-78
2023/12/31 12:12:48;;;;;;;5.35;2.00;;;;;;;;;;5056191;28;20526;-79
2023/12/31 12:15:24;;;;;;;5.47;1.95;;;;;;;;;;5057080;28;20028;-77
2023/12/31 12:17:50;;;;;;;3.58;1.80;;;;;;;;;;5023516;28;20466;-77
2023/12/31 12:20:15;;;;;;;3.53;1.75;;;;;;;;;;5073916;28;20025;-77
2023/12/31 12:22:42;;;;;;;5.38;2.30;;;;;;;;;;5040061;28;20060;-77
2023/12/31 12:25:14;;;;;;;4.47;2.03;;;;;;;;;;5024373;28;20051;-77
2023/12/31 12:27:40;;;;;;;4.10;1.98;;;;;;;;;;5040804;28;20025;-77
2023/12/31 12:30:09;;;;;;;5.63;2.40;;;;;;;;;;5040356;28;20100;-77
2023/12/31 12:32:38;;;;;;;;;;;;;;;;;;5058148;28;20025;-78
2023/12/31 12:35:08;;;;;;;4.72;2.08;;;;;;;;;;5058148;28;19908;-78
2023/12/31 12:37:33;;;;;;;5.13;2.60;;;;;;;;;;5041495;28;20090;-77
2023/12/31 12:40:05;;;;;;;4.03;1.98;;;;;;;;;;5042857;28;20056;-78
2023/12/31 12:42:33;;;;;;;5.80;2.17;;;;;;;;;;5025334;28;20120;-77
2023/12/31 12:45:02;;;;;;;6.85;2.13;;;;;;;;;;5026286;28;20498;-78
2023/12/31 12:50:52;;;;;;;3.88;1.50;;;;;;;;;;5041133;28;20040;-78
2023/12/31 12:53:18;;;;;;;4.28;1.70;;;;;;;;;;5040830;28;20167;-78
2023/12/31 12:55:48;;;;;;;3.03;1.60;;;;;;;;;;5056813;28;20060;-77
2023/12/31 12:58:14;;;;;;;4.75;1.60;;;;;;;;;;5041722;28;20025;-77
2023/12/31 13:00:42;;;;;;;3.47;1.45;;;;;;;;;;5041516;28;20056;-79
2023/12/31 13:03:08;;;;;;;;;;;;;;;;;;5041766;28;20037;-77
2023/12/31 13:05:34;;;;;;;3.88;1.90;;;;;;;;;;5059123;28;19909;-77
2023/12/31 13:08:00;;;;;;;3.97;1.30;;;;;;;;;;5039288;28;20060;-78
2023/12/31 13:10:29;;;;;;;2.70;1.50;;;;;;;;;;5039988;28;20036;-78
2023/12/31 13:12:58;;;;;;;2.72;1.38;;;;;;;;;;5038444;28;20032;-78
2023/12/31 13:15:24;;;;;;;4.43;1.40;;;;;;;;;;5054979;28;20040;-78
2023/12/31 13:17:50;;;;;;;3.92;1.20;;;;;;;;;;5023228;28;20426;-79
2023/12/31 13:20:20;;;;;;;4.22;1.63;;;;;;;;;;5039108;28;20029;-78
2023/12/31 13:22:45;;;;;;;3.63;1.80;;;;;;;;;;5040173;28;20059;-79
2023/12/31 13:25:11;;;;;;;4.43;1.98;;;;;;;;;;5072502;28;20029;-77
2023/12/31 13:27:43;;;;;;;4.53;1.83;;;;;;;;;;5023897;28;20128;-78
2023/12/31 13:30:09;;;;;;;3.63;1.67;;;;;;;;;;5056436;28;20060;-78
2023/12/31 13:32:35;;;;;;;3.45;1.58;;;;;;;;;;5039218;28;20033;-78
2023/12/31 13:35:00;;;;;;;4.30;1.70;;;;;;;;;;5071054;28;20059;-78
2023/12/31 13:37:26;;;;;;;4.07;1.55;;;;;;;;;;5022087;28;20396;-78
2023/12/31 13:39:52;;;;;;;5.00;1.92;;;;;;;;;;5054994;28;20025;-78
2023/12/31 13:42:18;;;;;;;4.40;1.40;;;;;;;;;;5021631;28;20045;-77
2023/12/31 13:44:43;;;;;;;2.35;1.05;;;;;;;;;;5071825;28;20049;-78
2023/12/31 13:47:09;;;;;;;3.45;1.20;;;;;;;;;;5071663;28;20393;-77
2023/12/31 13:49:44;;;;;;;6.38;1.52;;;;;;;;;;5022850;28;20492;-77
2023/12/31 13:52:10;;;;;;;4.20;1.48;;;;;;;;;;5020101;28;20025;-78
2023/12/31 13:54:35;;;;;;;3.15;1.08;;;;;;;;;;5051833;28;20036;-78
2023/12/31 13:57:01;;;;;;;3.58;1.45;;;;;;;;;;5036974;28;20533;-78
2023/12/31 13:59:27;;;;;;;5.10;1.27;;;;;;;;;;5052926;28;20094;-78
2023/12/31 14:01:52;;;;;;;3.13;1.35;;;;;;;;;;5036444;28;20087;-78
2023/12/31 14:04:18;;;;;;;3.88;1.20;;;;;;;;;;5019940;28;20037;-79
2023/12/31 14:06:50;;;;;;;3.13;1.27;;;;;;;;;;5054612;28;20469;-77
2023/12/31 14:09:17;;;;;;;2.83;1.30;;;;;;;;;;5054707;28;20102;-78
2023/12/31 14:11:43;;;;;;;4.53;1.67;;;;;;;;;;5037599;28;20036;-77
2023/12/31 14:14:09;;;;;;;3.70;1.50;;;;;;;;;;5022927;28;20029;-78
2023/12/31 14:16:35;;;;;;;6.05;1.40;;;;;;;;;;5038335;28;20031;-78
2023/12/31 14:19:03;;;;;;;3.08;1.23;;;;;;;;;;5057301;28;20033;-78
2023/12/31 14:21:30;;;;;;;5.47;1.38;;;;;;;;;;5038366;28;20063;-77
2023/12/31 14:23:59;;;;;;;3.47;1.30;;;;;;;;;;5037307;28;20048;-78
2023/12/31 14:26:25;;;;;;;3.65;1.35;;;;;;;;;;5054662;28;20031;-77
2023/12/31 14:28:51;;;;;;;5.22;1.60;;;;;;;;;;5043125;28;20075;-77
2023/12/31 14:31:20;;;;;;;3.15;1.25;;;;;;;;;;5025311;28;20029;-78
2023/12/31 14:34:21;;;;;;;4.38;1.70;;;;;;;;;;5043092;28;20024;-79
2023/12/31 14:36:46;;;;;;;9.27;1.83;;;;;;;;;;5059976;28;20037;-78
2023/12/31 14:39:15;;;;;;;3.95;1.73;;;;;;;;;;5058980;28;20054;-78
2023/12/31 14:41:41;;;;;;;4.82;1.35;;;;;;;;;;5040926;28;20059;-78
2023/12/31 14:44:07;;;;;;;3.15;1.40;;;;;;;;;;5040822;28;20530;-79
2023/12/31 14:46:33;;;;;;;3.85;1.63;;;;;;;;;;5055942;28;20480;-78